sensor_id;sensor_type;location;lat;lon;timestamp;temperature;humidity
4097;DHT22;2062;50.694;7.246;2023-06-05T00:01:06;17.00;28.20
4097;DHT22;2062;50.694;7.246;2023-06-05T00:03:33;17.00;28.10
4097;DHT22;2062;50.694;7.246;2023-06-05T00:06:03;16.90;28.30
4097;DHT22;2062;50.694;7.246;2023-06-05T00:08:31;16.90;28.40
4097;DHT22;2062;50.694;7.246;2023-06-05T00:10:57;16.90;28.20
4097;DHT22;2062;50.694;7.246;2023-06-05T00:13:24;16.90;28.30
4097;DHT22;2062;50.694;7.246;2023-06-05T00:15:51;16.90;28.50
4097;DHT22;2062;50.694;7.246;2023-06-05T00:18:18;16.90;28.40
4097;DHT22;2062;50.694;7.246;2023-06-05T00:20:46;16.80;28.30
4097;DHT22;2062;50.694;7.246;2023-06-05T00:23:14;16.80;28.30
4097;DHT22;2062;50.694;7.246;2023-06-05T00:25:41;16.80;28.50
4097;DHT22;2062;50.694;7.246;2023-06-05T00:28:07;16.80;28.50
4097;DHT22;2062;50.694;7.246;2023-06-05T00:30:34;16.80;28.40
4097;DHT22;2062;50.694;7.246;2023-06-05T00:33:02;16.80;28.40
4097;DHT22;2062;50.694;7.246;2023-06-05T00:35:30;16.70;28.40
4097;DHT22;2062;50.694;7.246;2023-06-05T00:37:57;16.70;28.70
4097;DHT22;2062;50.694;7.246;2023-06-05T00:40:25;16.70;28.70
4097;DHT22;2062;50.694;7.246;2023-06-05T00:42:51;16.70;28.60
4097;DHT22;2062;50.694;7.246;2023-06-05T00:45:18;16.70;28.70
4097;DHT22;2062;50.694;7.246;2023-06-05T00:47:45;16.60;28.60
4097;DHT22;2062;50.694;7.246;2023-06-05T00:50:13;16.70;28.70
4097;DHT22;2062;50.694;7.246;2023-06-05T00:52:41;16.60;28.60
4097;DHT22;2062;50.694;7.246;2023-06-05T00:55:09;16.60;28.70
4097;DHT22;2062;50.694;7.246;2023-06-05T00:57:38;16.60;28.50
4097;DHT22;2062;50.694;7.246;2023-06-05T01:00:06;16.60;28.60
4097;DHT22;2062;50.694;7.246;2023-06-05T01:02:34;16.50;28.80
4097;DHT22;2062;50.694;7.246;2023-06-05T01:05:02;16.50;28.90
4097;DHT22;2062;50.694;7.246;2023-06-05T01:07:31;16.50;29.20
4097;DHT22;2062;50.694;7.246;2023-06-05T01:09:59;16.40;29.50
4097;DHT22;2062;50.694;7.246;2023-06-05T01:12:29;16.40;29.40
4097;DHT22;2062;50.694;7.246;2023-06-05T01:15:02;16.40;29.50
4097;DHT22;2062;50.694;7.246;2023-06-05T01:17:31;16.40;29.80
4097;DHT22;2062;50.694;7.246;2023-06-05T01:19:59;16.30;30.00
4097;DHT22;2062;50.694;7.246;2023-06-05T01:22:35;16.30;30.30
4097;DHT22;2062;50.694;7.246;2023-06-05T01:25:05;16.30;30.50
4097;DHT22;2062;50.694;7.246;2023-06-05T01:27:40;16.30;30.70
4097;DHT22;2062;50.694;7.246;2023-06-05T01:30:12;16.20;31.00
4097;DHT22;2062;50.694;7.246;2023-06-05T01:32:48;16.20;31.10
4097;DHT22;2062;50.694;7.246;2023-06-05T01:35:20;16.10;31.10
4097;DHT22;2062;50.694;7.246;2023-06-05T01:37:54;16.10;31.30
4097;DHT22;2062;50.694;7.246;2023-06-05T01:40:24;16.00;31.40
4097;DHT22;2062;50.694;7.246;2023-06-05T01:42:53;16.00;31.80
4097;DHT22;2062;50.694;7.246;2023-06-05T01:45:21;15.90;31.90
4097;DHT22;2062;50.694;7.246;2023-06-05T01:47:48;15.90;32.20
4097;DHT22;2062;50.694;7.246;2023-06-05T01:50:16;15.80;32.30
4097;DHT22;2062;50.694;7.246;2023-06-05T01:52:44;15.80;32.50
4097;DHT22;2062;50.694;7.246;2023-06-05T01:55:14;15.80;32.70
4097;DHT22;2062;50.694;7.246;2023-06-05T01:57:43;15.70;32.70
4097;DHT22;2062;50.694;7.246;2023-06-05T02:00:11;15.60;32.70
4097;DHT22;2062;50.694;7.246;2023-06-05T02:02:41;15.60;32.90
4097;DHT22;2062;50.694;7.246;2023-06-05T02:05:08;15.50;33.00
4097;DHT22;2062;50.694;7.246;2023-06-05T02:07:36;15.50;33.00
4097;DHT22;2062;50.694;7.246;2023-06-05T02:10:04;15.40;33.00
4097;DHT22;2062;50.694;7.246;2023-06-05T02:12:31;15.40;33.30
4097;DHT22;2062;50.694;7.246;2023-06-05T02:15:00;15.30;33.40
4097;DHT22;2062;50.694;7.246;2023-06-05T02:17:26;15.20;33.60
4097;DHT22;2062;50.694;7.246;2023-06-05T02:19:54;15.20;33.40
4097;DHT22;2062;50.694;7.246;2023-06-05T02:22:21;15.20;33.50
4097;DHT22;2062;50.694;7.246;2023-06-05T02:24:49;15.10;33.80
4097;DHT22;2062;50.694;7.246;2023-06-05T02:27:17;15.10;33.80
4097;DHT22;2062;50.694;7.246;2023-06-05T02:29:44;15.00;34.20
4097;DHT22;2062;50.694;7.246;2023-06-05T02:32:13;15.00;34.00
4097;DHT22;2062;50.694;7.246;2023-06-05T02:34:39;15.00;34.00
4097;DHT22;2062;50.694;7.246;2023-06-05T02:37:06;14.90;34.20
4097;DHT22;2062;50.694;7.246;2023-06-05T02:39:33;14.90;35.60
4097;DHT22;2062;50.694;7.246;2023-06-05T02:42:00;14.80;34.30
4097;DHT22;2062;50.694;7.246;2023-06-05T02:44:27;14.80;34.50
4097;DHT22;2062;50.694;7.246;2023-06-05T02:46:54;14.80;34.50
4097;DHT22;2062;50.694;7.246;2023-06-05T02:49:22;14.70;34.50
4097;DHT22;2062;50.694;7.246;2023-06-05T02:51:49;14.60;34.70
4097;DHT22;2062;50.694;7.246;2023-06-05T02:54:16;14.60;34.60
4097;DHT22;2062;50.694;7.246;2023-06-05T02:56:43;14.50;34.80
4097;DHT22;2062;50.694;7.246;2023-06-05T02:59:09;14.50;34.60
4097;DHT22;2062;50.694;7.246;2023-06-05T03:01:36;14.40;35.00
4097;DHT22;2062;50.694;7.246;2023-06-05T03:04:04;14.40;35.00
4097;DHT22;2062;50.694;7.246;2023-06-05T03:06:33;14.40;34.80
4097;DHT22;2062;50.694;7.246;2023-06-05T03:09:00;14.30;35.10
4097;DHT22;2062;50.694;7.246;2023-06-05T03:11:28;14.40;35.40
4097;DHT22;2062;50.694;7.246;2023-06-05T03:13:55;14.30;35.00
4097;DHT22;2062;50.694;7.246;2023-06-05T03:16:21;14.20;35.20
4097;DHT22;2062;50.694;7.246;2023-06-05T03:18:49;14.20;35.30
4097;DHT22;2062;50.694;7.246;2023-06-05T03:21:16;14.20;35.30
4097;DHT22;2062;50.694;7.246;2023-06-05T03:23:44;14.10;35.20
4097;DHT22;2062;50.694;7.246;2023-06-05T03:26:11;14.10;35.30
4097;DHT22;2062;50.694;7.246;2023-06-05T03:28:38;14.10;35.60
4097;DHT22;2062;50.694;7.246;2023-06-05T03:31:05;14.00;35.60
4097;DHT22;2062;50.694;7.246;2023-06-05T03:33:31;14.10;36.60
4097;DHT22;2062;50.694;7.246;2023-06-05T03:35:58;14.00;35.70
4097;DHT22;2062;50.694;7.246;2023-06-05T03:38:25;14.00;35.90
4097;DHT22;2062;50.694;7.246;2023-06-05T03:40:53;14.00;35.80
4097;DHT22;2062;50.694;7.246;2023-06-05T03:43:20;13.90;36.00
4097;DHT22;2062;50.694;7.246;2023-06-05T03:45:50;13.90;36.20
4097;DHT22;2062;50.694;7.246;2023-06-05T03:48:17;13.90;36.00
4097;DHT22;2062;50.694;7.246;2023-06-05T03:50:46;13.80;36.20
4097;DHT22;2062;50.694;7.246;2023-06-05T03:53:13;13.80;36.20
4097;DHT22;2062;50.694;7.246;2023-06-05T03:55:40;13.80;36.10
4097;DHT22;2062;50.694;7.246;2023-06-05T03:58:14;13.80;36.10
4097;DHT22;2062;50.694;7.246;2023-06-05T04:00:42;13.80;36.50
4097;DHT22;2062;50.694;7.246;2023-06-05T04:03:09;13.70;36.50
4097;DHT22;2062;50.694;7.246;2023-06-05T04:05:37;13.70;36.60
4097;DHT22;2062;50.694;7.246;2023-06-05T04:08:05;13.70;36.40
4097;DHT22;2062;50.694;7.246;2023-06-05T04:10:32;13.70;36.70
4097;DHT22;2062;50.694;7.246;2023-06-05T04:12:58;13.70;36.80
4097;DHT22;2062;50.694;7.246;2023-06-05T04:15:27;13.80;36.80
4097;DHT22;2062;50.694;7.246;2023-06-05T04:17:54;13.70;37.00
4097;DHT22;2062;50.694;7.246;2023-06-05T04:20:21;13.70;37.10
4097;DHT22;2062;50.694;7.246;2023-06-05T04:22:48;13.70;37.20
4097;DHT22;2062;50.694;7.246;2023-06-05T04:25:15;13.70;37.10
4097;DHT22;2062;50.694;7.246;2023-06-05T04:27:44;13.70;37.20
4097;DHT22;2062;50.694;7.246;2023-06-05T04:30:12;13.70;37.40
4097;DHT22;2062;50.694;7.246;2023-06-05T04:32:40;13.70;37.40
4097;DHT22;2062;50.694;7.246;2023-06-05T04:35:08;13.70;38.10
4097;DHT22;2062;50.694;7.246;2023-06-05T04:37:36;13.70;37.60
4097;DHT22;2062;50.694;7.246;2023-06-05T04:40:04;13.80;37.70
4097;DHT22;2062;50.694;7.246;2023-06-05T04:42:31;13.70;37.70
4097;DHT22;2062;50.694;7.246;2023-06-05T04:44:59;13.70;37.70
4097;DHT22;2062;50.694;7.246;2023-06-05T04:47:28;13.70;38.00
4097;DHT22;2062;50.694;7.246;2023-06-05T04:49:58;13.70;38.10
4097;DHT22;2062;50.694;7.246;2023-06-05T04:52:25;13.70;38.00
4097;DHT22;2062;50.694;7.246;2023-06-05T04:54:52;13.70;38.20
4097;DHT22;2062;50.694;7.246;2023-06-05T04:57:19;13.80;38.20
4097;DHT22;2062;50.694;7.246;2023-06-05T04:59:45;13.80;38.20
4097;DHT22;2062;50.694;7.246;2023-06-05T05:02:12;13.80;38.30
4097;DHT22;2062;50.694;7.246;2023-06-05T05:04:39;13.80;38.40
4097;DHT22;2062;50.694;7.246;2023-06-05T05:07:08;13.80;38.30
4097;DHT22;2062;50.694;7.246;2023-06-05T05:09:40;13.90;38.50
4097;DHT22;2062;50.694;7.246;2023-06-05T05:12:07;13.80;38.30
4097;DHT22;2062;50.694;7.246;2023-06-05T05:14:35;13.90;38.40
4097;DHT22;2062;50.694;7.246;2023-06-05T05:17:02;13.80;38.30
4097;DHT22;2062;50.694;7.246;2023-06-05T05:19:29;13.80;38.30
4097;DHT22;2062;50.694;7.246;2023-06-05T05:21:57;13.80;38.20
4097;DHT22;2062;50.694;7.246;2023-06-05T05:24:25;13.90;38.40
4097;DHT22;2062;50.694;7.246;2023-06-05T05:26:52;13.90;38.40
4097;DHT22;2062;50.694;7.246;2023-06-05T05:29:19;13.90;38.30
4097;DHT22;2062;50.694;7.246;2023-06-05T05:31:46;13.90;38.80
4097;DHT22;2062;50.694;7.246;2023-06-05T05:34:13;14.00;38.60
4097;DHT22;2062;50.694;7.246;2023-06-05T05:36:39;14.00;38.40
4097;DHT22;2062;50.694;7.246;2023-06-05T05:39:06;14.10;38.30
4097;DHT22;2062;50.694;7.246;2023-06-05T05:41:34;14.10;38.40
4097;DHT22;2062;50.694;7.246;2023-06-05T05:44:01;14.30;38.60
4097;DHT22;2062;50.694;7.246;2023-06-05T05:46:28;14.40;39.00
4097;DHT22;2062;50.694;7.246;2023-06-05T05:48:55;14.50;39.00
4097;DHT22;2062;50.694;7.246;2023-06-05T05:51:22;14.60;39.50
4097;DHT22;2062;50.694;7.246;2023-06-05T05:53:49;14.80;40.00
4097;DHT22;2062;50.694;7.246;2023-06-05T05:56:16;15.00;40.10
4097;DHT22;2062;50.694;7.246;2023-06-05T05:58:44;15.10;39.50
4097;DHT22;2062;50.694;7.246;2023-06-05T06:01:12;15.30;39.40
4097;DHT22;2062;50.694;7.246;2023-06-05T06:03:39;15.50;39.30
4097;DHT22;2062;50.694;7.246;2023-06-05T06:06:06;15.60;39.50
4097;DHT22;2062;50.694;7.246;2023-06-05T06:08:33;15.80;40.00
4097;DHT22;2062;50.694;7.246;2023-06-05T06:11:00;16.00;40.70
4097;DHT22;2062;50.694;7.246;2023-06-05T06:13:29;16.20;40.30
4097;DHT22;2062;50.694;7.246;2023-06-05T06:15:57;16.40;40.40
4097;DHT22;2062;50.694;7.246;2023-06-05T06:18:24;16.60;39.90
4097;DHT22;2062;50.694;7.246;2023-06-05T06:20:51;16.80;40.00
4097;DHT22;2062;50.694;7.246;2023-06-05T06:23:17;17.00;39.10
4097;DHT22;2062;50.694;7.246;2023-06-05T06:25:44;17.20;38.10
4097;DHT22;2062;50.694;7.246;2023-06-05T06:28:11;17.40;38.20
4097;DHT22;2062;50.694;7.246;2023-06-05T06:30:38;17.50;37.30
4097;DHT22;2062;50.694;7.246;2023-06-05T06:33:06;17.70;37.30
4097;DHT22;2062;50.694;7.246;2023-06-05T06:35:33;17.90;36.50
4097;DHT22;2062;50.694;7.246;2023-06-05T06:38:00;18.00;36.60
4097;DHT22;2062;50.694;7.246;2023-06-05T06:40:27;18.20;36.30
4097;DHT22;2062;50.694;7.246;2023-06-05T06:42:55;18.40;35.60
4097;DHT22;2062;50.694;7.246;2023-06-05T06:45:21;18.50;36.50
4097;DHT22;2062;50.694;7.246;2023-06-05T06:47:48;18.70;35.60
4097;DHT22;2062;50.694;7.246;2023-06-05T06:50:16;18.90;35.50
4097;DHT22;2062;50.694;7.246;2023-06-05T06:52:43;19.00;35.10
4097;DHT22;2062;50.694;7.246;2023-06-05T06:55:10;19.10;35.00
4097;DHT22;2062;50.694;7.246;2023-06-05T06:57:37;19.30;35.00
4097;DHT22;2062;50.694;7.246;2023-06-05T07:00:05;19.40;34.60
4097;DHT22;2062;50.694;7.246;2023-06-05T07:02:35;19.60;34.80
4097;DHT22;2062;50.694;7.246;2023-06-05T07:05:03;19.70;35.20
4097;DHT22;2062;50.694;7.246;2023-06-05T07:07:33;19.90;35.20
4097;DHT22;2062;50.694;7.246;2023-06-05T07:09:59;20.00;34.80
4097;DHT22;2062;50.694;7.246;2023-06-05T07:12:26;20.10;34.70
4097;DHT22;2062;50.694;7.246;2023-06-05T07:14:53;20.30;34.50
4097;DHT22;2062;50.694;7.246;2023-06-05T07:17:20;20.40;34.50
4097;DHT22;2062;50.694;7.246;2023-06-05T07:19:47;20.50;34.20
4097;DHT22;2062;50.694;7.246;2023-06-05T07:22:14;20.70;34.20
4097;DHT22;2062;50.694;7.246;2023-06-05T07:24:43;20.80;34.00
4097;DHT22;2062;50.694;7.246;2023-06-05T07:27:10;20.90;33.80
4097;DHT22;2062;50.694;7.246;2023-06-05T07:29:37;21.10;33.90
4097;DHT22;2062;50.694;7.246;2023-06-05T07:32:05;21.20;33.40
4097;DHT22;2062;50.694;7.246;2023-06-05T07:34:32;21.30;33.30
4097;DHT22;2062;50.694;7.246;2023-06-05T07:37:00;21.40;32.90
4097;DHT22;2062;50.694;7.246;2023-06-05T07:39:27;21.50;32.60
4097;DHT22;2062;50.694;7.246;2023-06-05T07:41:56;21.60;32.90
4097;DHT22;2062;50.694;7.246;2023-06-05T07:44:23;21.80;32.40
4097;DHT22;2062;50.694;7.246;2023-06-05T07:46:50;21.90;32.20
4097;DHT22;2062;50.694;7.246;2023-06-05T07:49:17;22.10;31.50
4097;DHT22;2062;50.694;7.246;2023-06-05T07:51:44;22.20;31.00
4097;DHT22;2062;50.694;7.246;2023-06-05T07:54:13;22.30;31.90
4097;DHT22;2062;50.694;7.246;2023-06-05T07:56:41;22.50;31.90
4097;DHT22;2062;50.694;7.246;2023-06-05T07:59:09;22.60;30.50
4097;DHT22;2062;50.694;7.246;2023-06-05T08:01:39;22.80;30.80
4097;DHT22;2062;50.694;7.246;2023-06-05T08:04:06;22.90;30.60
4097;DHT22;2062;50.694;7.246;2023-06-05T08:06:35;23.00;30.30
4097;DHT22;2062;50.694;7.246;2023-06-05T08:09:03;23.20;30.10
4097;DHT22;2062;50.694;7.246;2023-06-05T08:11:30;23.40;29.60
4097;DHT22;2062;50.694;7.246;2023-06-05T08:13:57;23.50;29.30
4097;DHT22;2062;50.694;7.246;2023-06-05T08:16:25;23.60;28.70
4097;DHT22;2062;50.694;7.246;2023-06-05T08:18:52;23.70;29.10
4097;DHT22;2062;50.694;7.246;2023-06-05T08:21:19;23.90;29.20
4097;DHT22;2062;50.694;7.246;2023-06-05T08:23:45;24.00;28.00
4097;DHT22;2062;50.694;7.246;2023-06-05T08:26:12;24.10;28.20
4097;DHT22;2062;50.694;7.246;2023-06-05T08:28:40;24.20;28.50
4097;DHT22;2062;50.694;7.246;2023-06-05T08:31:07;24.40;27.90
4097;DHT22;2062;50.694;7.246;2023-06-05T08:33:36;24.50;28.50
4097;DHT22;2062;50.694;7.246;2023-06-05T08:36:04;24.60;28.00
4097;DHT22;2062;50.694;7.246;2023-06-05T08:38:33;24.70;27.00
4097;DHT22;2062;50.694;7.246;2023-06-05T08:41:01;24.80;27.30
4097;DHT22;2062;50.694;7.246;2023-06-05T08:43:28;25.00;26.60
4097;DHT22;2062;50.694;7.246;2023-06-05T08:45:57;25.10;26.90
4097;DHT22;2062;50.694;7.246;2023-06-05T08:48:24;25.20;27.00
4097;DHT22;2062;50.694;7.246;2023-06-05T08:50:53;25.30;26.40
4097;DHT22;2062;50.694;7.246;2023-06-05T08:53:21;25.40;25.90
4097;DHT22;2062;50.694;7.246;2023-06-05T08:55:53;25.50;26.70
4097;DHT22;2062;50.694;7.246;2023-06-05T08:58:21;25.60;26.20
4097;DHT22;2062;50.694;7.246;2023-06-05T09:00:48;25.70;25.40
4097;DHT22;2062;50.694;7.246;2023-06-05T09:03:16;25.80;25.60
4097;DHT22;2062;50.694;7.246;2023-06-05T09:05:46;25.90;24.90
4097;DHT22;2062;50.694;7.246;2023-06-05T09:08:15;26.00;25.40
4097;DHT22;2062;50.694;7.246;2023-06-05T09:10:42;26.10;25.40
4097;DHT22;2062;50.694;7.246;2023-06-05T09:13:09;26.20;26.30
4097;DHT22;2062;50.694;7.246;2023-06-05T09:15:36;26.30;26.30
4097;DHT22;2062;50.694;7.246;2023-06-05T09:18:08;26.40;26.40
4097;DHT22;2062;50.694;7.246;2023-06-05T09:20:36;26.60;25.60
4097;DHT22;2062;50.694;7.246;2023-06-05T09:23:05;26.60;25.30
4097;DHT22;2062;50.694;7.246;2023-06-05T09:25:49;26.80;24.80
4097;DHT22;2062;50.694;7.246;2023-06-05T09:28:16;26.90;24.30
4097;DHT22;2062;50.694;7.246;2023-06-05T09:31:00;26.90;24.00
4097;DHT22;2062;50.694;7.246;2023-06-05T09:33:27;27.10;24.40
4097;DHT22;2062;50.694;7.246;2023-06-05T09:36:13;27.10;23.20
4097;DHT22;2062;50.694;7.246;2023-06-05T09:38:41;27.10;23.50
4097;DHT22;2062;50.694;7.246;2023-06-05T09:41:10;27.20;24.20
4097;DHT22;2062;50.694;7.246;2023-06-05T09:43:38;27.30;24.80
4097;DHT22;2062;50.694;7.246;2023-06-05T09:46:09;27.40;24.50
4097;DHT22;2062;50.694;7.246;2023-06-05T09:48:35;27.50;25.00
4097;DHT22;2062;50.694;7.246;2023-06-05T09:51:10;27.60;23.60
4097;DHT22;2062;50.694;7.246;2023-06-05T09:53:41;27.70;24.40
4097;DHT22;2062;50.694;7.246;2023-06-05T09:56:12;27.80;24.30
4097;DHT22;2062;50.694;7.246;2023-06-05T09:58:44;28.00;23.80
4097;DHT22;2062;50.694;7.246;2023-06-05T10:01:13;28.00;23.80
4097;DHT22;2062;50.694;7.246;2023-06-05T10:03:44;28.20;23.90
4097;DHT22;2062;50.694;7.246;2023-06-05T10:06:11;28.20;23.50
4097;DHT22;2062;50.694;7.246;2023-06-05T10:08:39;28.30;23.90
4097;DHT22;2062;50.694;7.246;2023-06-05T10:11:07;28.40;23.60
4097;DHT22;2062;50.694;7.246;2023-06-05T10:13:37;28.60;22.60
4097;DHT22;2062;50.694;7.246;2023-06-05T10:16:04;28.70;23.30
4097;DHT22;2062;50.694;7.246;2023-06-05T10:18:32;28.70;23.20
4097;DHT22;2062;50.694;7.246;2023-06-05T10:20:59;28.90;23.60
4097;DHT22;2062;50.694;7.246;2023-06-05T10:23:26;29.00;23.80
4097;DHT22;2062;50.694;7.246;2023-06-05T10:25:55;29.00;22.70
4097;DHT22;2062;50.694;7.246;2023-06-05T10:28:35;29.10;22.50
4097;DHT22;2062;50.694;7.246;2023-06-05T10:31:19;29.10;22.10
4097;DHT22;2062;50.694;7.246;2023-06-05T10:34:06;29.20;20.90
4097;DHT22;2062;50.694;7.246;2023-06-05T10:39:35;29.20;22.00
4097;DHT22;2062;50.694;7.246;2023-06-05T10:42:02;29.30;21.60
4097;DHT22;2062;50.694;7.246;2023-06-05T10:44:39;29.30;20.50
4097;DHT22;2062;50.694;7.246;2023-06-05T10:50:25;29.40;20.40
4097;DHT22;2062;50.694;7.246;2023-06-05T10:52:54;29.40;21.80
4097;DHT22;2062;50.694;7.246;2023-06-05T10:55:21;29.50;21.20
4097;DHT22;2062;50.694;7.246;2023-06-05T10:58:05;29.60;21.10
4097;DHT22;2062;50.694;7.246;2023-06-05T11:00:33;29.60;21.60
4097;DHT22;2062;50.694;7.246;2023-06-05T11:03:01;29.70;21.50
4097;DHT22;2062;50.694;7.246;2023-06-05T11:05:29;29.80;21.60
4097;DHT22;2062;50.694;7.246;2023-06-05T11:08:13;29.90;21.60
4097;DHT22;2062;50.694;7.246;2023-06-05T11:11:02;29.90;20.20
4097;DHT22;2062;50.694;7.246;2023-06-05T11:13:52;30.00;21.20
4097;DHT22;2062;50.694;7.246;2023-06-05T11:16:26;30.10;20.60
4097;DHT22;2062;50.694;7.246;2023-06-05T11:18:53;30.10;20.60
4097;DHT22;2062;50.694;7.246;2023-06-05T11:21:22;30.20;20.00
4097;DHT22;2062;50.694;7.246;2023-06-05T11:24:13;30.20;20.00
4097;DHT22;2062;50.694;7.246;2023-06-05T11:26:40;30.20;19.60
4097;DHT22;2062;50.694;7.246;2023-06-05T11:29:15;30.20;19.50
4097;DHT22;2062;50.694;7.246;2023-06-05T11:31:43;30.20;19.00
4097;DHT22;2062;50.694;7.246;2023-06-05T11:34:11;30.20;19.20
4097;DHT22;2062;50.694;7.246;2023-06-05T11:36:41;30.20;19.20
4097;DHT22;2062;50.694;7.246;2023-06-05T11:39:08;30.20;19.50
4097;DHT22;2062;50.694;7.246;2023-06-05T11:41:43;30.20;19.00
4097;DHT22;2062;50.694;7.246;2023-06-05T11:44:10;30.20;18.80
4097;DHT22;2062;50.694;7.246;2023-06-05T11:46:37;30.20;19.70
4097;DHT22;2062;50.694;7.246;2023-06-05T11:49:04;30.20;19.70
4097;DHT22;2062;50.694;7.246;2023-06-05T11:51:34;30.40;20.00
4097;DHT22;2062;50.694;7.246;2023-06-05T11:54:03;30.50;20.40
4097;DHT22;2062;50.694;7.246;2023-06-05T11:56:33;30.50;19.70
4097;DHT22;2062;50.694;7.246;2023-06-05T11:59:00;30.60;19.90
4097;DHT22;2062;50.694;7.246;2023-06-05T12:01:27;30.80;19.60
4097;DHT22;2062;50.694;7.246;2023-06-05T12:04:03;30.80;18.80
4097;DHT22;2062;50.694;7.246;2023-06-05T12:06:30;30.80;18.30
4097;DHT22;2062;50.694;7.246;2023-06-05T12:09:09;30.80;18.80
4097;DHT22;2062;50.694;7.246;2023-06-05T12:11:37;30.80;18.40
4097;DHT22;2062;50.694;7.246;2023-06-05T12:14:04;30.80;18.10
4097;DHT22;2062;50.694;7.246;2023-06-05T12:16:32;30.80;18.30
4097;DHT22;2062;50.694;7.246;2023-06-05T12:19:00;30.90;18.70
4097;DHT22;2062;50.694;7.246;2023-06-05T12:21:28;30.90;18.60
4097;DHT22;2062;50.694;7.246;2023-06-05T12:24:05;31.00;18.90
4097;DHT22;2062;50.694;7.246;2023-06-05T12:29:30;31.10;18.80
4097;DHT22;2062;50.694;7.246;2023-06-05T12:31:58;31.20;18.90
4097;DHT22;2062;50.694;7.246;2023-06-05T12:34:42;31.20;18.50
4097;DHT22;2062;50.694;7.246;2023-06-05T12:37:10;31.30;18.50
4097;DHT22;2062;50.694;7.246;2023-06-05T12:39:38;31.40;18.90
4097;DHT22;2062;50.694;7.246;2023-06-05T12:42:06;31.50;19.10
4097;DHT22;2062;50.694;7.246;2023-06-05T12:44:34;31.60;18.90
4097;DHT22;2062;50.694;7.246;2023-06-05T12:47:01;31.70;19.10
4097;DHT22;2062;50.694;7.246;2023-06-05T12:49:27;31.80;19.30
4097;DHT22;2062;50.694;7.246;2023-06-05T12:51:54;31.90;18.80
4097;DHT22;2062;50.694;7.246;2023-06-05T12:54:22;32.10;18.80
4097;DHT22;2062;50.694;7.246;2023-06-05T12:56:49;32.10;19.30
4097;DHT22;2062;50.694;7.246;2023-06-05T12:59:16;32.20;19.30
4097;DHT22;2062;50.694;7.246;2023-06-05T13:01:45;32.20;18.60
4097;DHT22;2062;50.694;7.246;2023-06-05T13:04:12;32.30;18.40
4097;DHT22;2062;50.694;7.246;2023-06-05T13:06:40;32.30;18.60
4097;DHT22;2062;50.694;7.246;2023-06-05T13:09:08;32.40;18.20
4097;DHT22;2062;50.694;7.246;2023-06-05T13:11:35;32.40;18.50
4097;DHT22;2062;50.694;7.246;2023-06-05T13:14:02;32.50;18.30
4097;DHT22;2062;50.694;7.246;2023-06-05T13:16:28;32.50;18.40
4097;DHT22;2062;50.694;7.246;2023-06-05T13:18:56;32.60;18.20
4097;DHT22;2062;50.694;7.246;2023-06-05T13:21:23;32.70;18.30
4097;DHT22;2062;50.694;7.246;2023-06-05T13:23:51;32.70;18.10
4097;DHT22;2062;50.694;7.246;2023-06-05T13:26:17;32.80;18.10
4097;DHT22;2062;50.694;7.246;2023-06-05T13:28:44;32.80;18.20
4097;DHT22;2062;50.694;7.246;2023-06-05T13:31:11;32.80;17.70
4097;DHT22;2062;50.694;7.246;2023-06-05T13:33:39;32.90;17.90
4097;DHT22;2062;50.694;7.246;2023-06-05T13:36:07;32.80;17.40
4097;DHT22;2062;50.694;7.246;2023-06-05T13:38:34;32.80;17.70
4097;DHT22;2062;50.694;7.246;2023-06-05T13:41:02;32.80;16.70
4097;DHT22;2062;50.694;7.246;2023-06-05T13:43:29;32.80;16.40
4097;DHT22;2062;50.694;7.246;2023-06-05T13:45:57;32.80;15.80
4097;DHT22;2062;50.694;7.246;2023-06-05T13:48:24;32.70;15.40
4097;DHT22;2062;50.694;7.246;2023-06-05T13:50:51;32.70;15.70
4097;DHT22;2062;50.694;7.246;2023-06-05T13:53:19;32.60;15.70
4097;DHT22;2062;50.694;7.246;2023-06-05T13:55:46;32.60;15.70
4097;DHT22;2062;50.694;7.246;2023-06-05T13:58:13;32.60;16.20
4097;DHT22;2062;50.694;7.246;2023-06-05T14:00:40;32.60;16.40
4097;DHT22;2062;50.694;7.246;2023-06-05T14:03:07;32.60;16.30
4097;DHT22;2062;50.694;7.246;2023-06-05T14:05:33;32.60;16.10
4097;DHT22;2062;50.694;7.246;2023-06-05T14:08:00;32.60;16.30
4097;DHT22;2062;50.694;7.246;2023-06-05T14:10:28;32.70;16.30
4097;DHT22;2062;50.694;7.246;2023-06-05T14:12:56;32.70;16.20
4097;DHT22;2062;50.694;7.246;2023-06-05T14:15:23;32.70;16.20
4097;DHT22;2062;50.694;7.246;2023-06-05T14:17:50;32.80;16.40
4097;DHT22;2062;50.694;7.246;2023-06-05T14:20:19;32.80;16.00
4097;DHT22;2062;50.694;7.246;2023-06-05T14:22:47;32.80;16.00
4097;DHT22;2062;50.694;7.246;2023-06-05T14:25:14;32.90;15.70
4097;DHT22;2062;50.694;7.246;2023-06-05T14:27:42;32.90;15.40
4097;DHT22;2062;50.694;7.246;2023-06-05T14:30:09;32.90;15.40
4097;DHT22;2062;50.694;7.246;2023-06-05T14:32:36;32.90;15.30
4097;DHT22;2062;50.694;7.246;2023-06-05T14:35:03;32.90;15.40
4097;DHT22;2062;50.694;7.246;2023-06-05T14:37:30;32.90;15.30
4097;DHT22;2062;50.694;7.246;2023-06-05T14:39:57;32.90;15.30
4097;DHT22;2062;50.694;7.246;2023-06-05T14:42:24;32.80;15.60
4097;DHT22;2062;50.694;7.246;2023-06-05T14:44:52;32.80;15.70
4097;DHT22;2062;50.694;7.246;2023-06-05T14:47:19;32.90;15.60
4097;DHT22;2062;50.694;7.246;2023-06-05T14:49:46;32.90;15.80
4097;DHT22;2062;50.694;7.246;2023-06-05T14:52:13;32.80;15.60
4097;DHT22;2062;50.694;7.246;2023-06-05T14:54:39;32.80;15.40
4097;DHT22;2062;50.694;7.246;2023-06-05T14:57:07;32.80;15.30
4097;DHT22;2062;50.694;7.246;2023-06-05T14:59:34;32.80;15.40
4097;DHT22;2062;50.694;7.246;2023-06-05T15:02:03;32.80;15.50
4097;DHT22;2062;50.694;7.246;2023-06-05T15:04:30;32.80;15.40
4097;DHT22;2062;50.694;7.246;2023-06-05T15:06:57;32.80;15.40
4097;DHT22;2062;50.694;7.246;2023-06-05T15:09:24;32.80;15.20
4097;DHT22;2062;50.694;7.246;2023-06-05T15:11:51;32.80;15.10
4097;DHT22;2062;50.694;7.246;2023-06-05T15:14:21;32.80;15.50
4097;DHT22;2062;50.694;7.246;2023-06-05T15:16:49;32.70;15.90
4097;DHT22;2062;50.694;7.246;2023-06-05T15:19:17;32.70;15.40
4097;DHT22;2062;50.694;7.246;2023-06-05T15:21:44;32.70;15.70
4097;DHT22;2062;50.694;7.246;2023-06-05T15:24:11;32.70;15.70
4097;DHT22;2062;50.694;7.246;2023-06-05T15:26:37;32.70;15.60
4097;DHT22;2062;50.694;7.246;2023-06-05T15:29:04;32.70;15.70
4097;DHT22;2062;50.694;7.246;2023-06-05T15:31:31;32.70;15.20
4097;DHT22;2062;50.694;7.246;2023-06-05T15:33:58;32.60;15.20
4097;DHT22;2062;50.694;7.246;2023-06-05T15:36:27;32.60;15.40
4097;DHT22;2062;50.694;7.246;2023-06-05T15:38:53;32.60;15.20
4097;DHT22;2062;50.694;7.246;2023-06-05T15:41:22;32.60;15.30
4097;DHT22;2062;50.694;7.246;2023-06-05T15:43:49;32.50;15.10
4097;DHT22;2062;50.694;7.246;2023-06-05T15:46:16;32.50;14.90
4097;DHT22;2062;50.694;7.246;2023-06-05T15:48:42;32.40;15.30
4097;DHT22;2062;50.694;7.246;2023-06-05T15:51:09;32.40;15.10
4097;DHT22;2062;50.694;7.246;2023-06-05T15:53:37;32.40;15.20
4097;DHT22;2062;50.694;7.246;2023-06-05T15:56:04;32.40;15.20
4097;DHT22;2062;50.694;7.246;2023-06-05T15:58:31;32.30;15.50
4097;DHT22;2062;50.694;7.246;2023-06-05T16:00:58;32.40;15.60
4097;DHT22;2062;50.694;7.246;2023-06-05T16:03:25;32.30;15.80
4097;DHT22;2062;50.694;7.246;2023-06-05T16:05:51;32.30;15.90
4097;DHT22;2062;50.694;7.246;2023-06-05T16:08:18;32.20;15.20
4097;DHT22;2062;50.694;7.246;2023-06-05T16:10:48;32.20;15.00
4097;DHT22;2062;50.694;7.246;2023-06-05T16:13:15;32.10;15.00
4097;DHT22;2062;50.694;7.246;2023-06-05T16:15:42;32.10;15.00
4097;DHT22;2062;50.694;7.246;2023-06-05T16:18:09;32.00;15.00